createdAt,value
2023-05-22T00:00:55.195Z,100.00
2023-05-22T00:03:27.479Z,100.00
2023-05-22T00:05:58.846Z,100.00
2023-05-22T00:08:29.826Z,100.00
2023-05-22T00:10:57.171Z,100.00
2023-05-22T00:13:23.930Z,100.00
2023-05-22T00:15:50.945Z,100.00
2023-05-22T00:18:17.871Z,100.00
2023-05-22T00:20:47.170Z,100.00
2023-05-22T00:23:17.308Z,100.00
2023-05-22T00:25:52.022Z,100.00
2023-05-22T00:28:18.825Z,100.00
2023-05-22T00:30:48.032Z,100.00
2023-05-22T00:33:17.555Z,100.00
2023-05-22T00:35:47.734Z,100.00
2023-05-22T00:38:36.640Z,100.00
2023-05-22T00:41:08.300Z,100.00
2023-05-22T00:43:35.553Z,100.00
2023-05-22T00:46:02.276Z,100.00
2023-05-22T00:48:29.135Z,100.00
2023-05-22T00:50:59.108Z,100.00
2023-05-22T00:53:28.654Z,100.00
2023-05-22T00:55:59.962Z,100.00
2023-05-22T00:58:33.156Z,100.00
2023-05-22T01:01:01.163Z,100.00
2023-05-22T01:03:29.928Z,100.00
2023-05-22T01:05:57.004Z,100.00
2023-05-22T01:08:24.039Z,100.00
2023-05-22T01:11:06.867Z,100.00
2023-05-22T01:14:07.854Z,100.00
2023-05-22T01:17:12.756Z,100.00
2023-05-22T01:21:06.613Z,100.00
2023-05-22T01:24:48.742Z,100.00
2023-05-22T01:28:08.534Z,100.00
2023-05-22T01:31:01.992Z,100.00
2023-05-22T01:33:43.680Z,100.00
2023-05-22T01:36:15.771Z,100.00
2023-05-22T01:39:00.400Z,100.00
2023-05-22T01:41:41.738Z,100.00
2023-05-22T01:44:08.440Z,100.00
2023-05-22T01:46:37.202Z,100.00
2023-05-22T01:49:06.740Z,100.00
2023-05-22T01:52:05.941Z,100.00
2023-05-22T01:54:57.151Z,100.00
2023-05-22T01:57:57.298Z,100.00
2023-05-22T02:00:27.660Z,100.00
2023-05-22T02:03:16.633Z,100.00
2023-05-22T02:05:55.637Z,100.00
2023-05-22T02:08:27.674Z,100.00
2023-05-22T02:11:00.604Z,100.00
2023-05-22T02:13:28.120Z,100.00
2023-05-22T02:15:59.173Z,100.00
2023-05-22T02:18:29.595Z,100.00
2023-05-22T02:20:58.241Z,100.00
2023-05-22T02:23:25.905Z,100.00
2023-05-22T02:25:55.178Z,100.00
2023-05-22T02:28:22.341Z,100.00
2023-05-22T02:30:52.170Z,100.00
2023-05-22T02:33:19.107Z,100.00
2023-05-22T02:35:46.187Z,100.00
2023-05-22T02:38:13.641Z,100.00
2023-05-22T02:40:43.321Z,100.00
2023-05-22T02:43:10.068Z,100.00
2023-05-22T02:45:36.940Z,100.00
2023-05-22T02:48:06.327Z,100.00
2023-05-22T02:50:37.244Z,100.00
2023-05-22T02:53:06.014Z,100.00
2023-05-22T02:55:32.760Z,100.00
2023-05-22T02:57:59.494Z,100.00
2023-05-22T03:00:28.290Z,100.00
2023-05-22T03:02:57.539Z,100.00
2023-05-22T03:05:24.551Z,100.00
2023-05-22T03:07:59.287Z,100.00
2023-05-22T03:10:25.990Z,100.00
2023-05-22T03:12:56.773Z,100.00
2023-05-22T03:15:23.517Z,100.00
2023-05-22T03:18:00.204Z,100.00
2023-05-22T03:20:27.201Z,100.00
2023-05-22T03:23:00.088Z,100.00
2023-05-22T03:25:26.911Z,100.00
2023-05-22T03:27:56.800Z,100.00
2023-05-22T03:30:23.605Z,100.00
2023-05-22T03:32:56.475Z,100.00
2023-05-22T03:35:24.785Z,100.00
2023-05-22T03:38:00.837Z,100.00
2023-05-22T03:40:27.519Z,100.00
2023-05-22T03:42:56.964Z,100.00
2023-05-22T03:45:24.227Z,100.00
2023-05-22T03:47:59.746Z,100.00
2023-05-22T03:50:26.460Z,100.00
2023-05-22T03:52:58.436Z,100.00
2023-05-22T03:55:28.104Z,100.00
2023-05-22T03:57:57.975Z,100.00
2023-05-22T04:00:26.747Z,100.00
2023-05-22T04:02:58.704Z,100.00
2023-05-22T04:05:25.856Z,100.00
2023-05-22T04:08:00.093Z,100.00
2023-05-22T04:10:29.013Z,100.00
2023-05-22T04:12:59.930Z,100.00
2023-05-22T04:15:27.055Z,100.00
2023-05-22T04:18:00.779Z,100.00
2023-05-22T04:20:27.716Z,100.00
2023-05-22T04:22:57.664Z,100.00
2023-05-22T04:25:24.500Z,100.00
2023-05-22T04:27:55.568Z,100.00
2023-05-22T04:30:22.316Z,100.00
2023-05-22T04:32:54.186Z,100.00
2023-05-22T04:35:26.133Z,100.00
2023-05-22T04:38:02.670Z,100.00
2023-05-22T04:40:32.235Z,100.00
2023-05-22T04:43:00.721Z,100.00
2023-05-22T04:45:30.800Z,100.00
2023-05-22T04:47:57.480Z,100.00
2023-05-22T04:50:24.882Z,100.00
2023-05-22T04:52:57.560Z,100.00
2023-05-22T04:55:24.485Z,100.00
2023-05-22T04:57:58.246Z,100.00
2023-05-22T05:00:28.319Z,100.00
2023-05-22T05:03:07.024Z,100.00
2023-05-22T05:05:41.693Z,100.00
2023-05-22T05:08:08.549Z,100.00
2023-05-22T05:10:35.554Z,100.00
2023-05-22T05:13:02.543Z,100.00
2023-05-22T05:15:33.460Z,100.00
2023-05-22T05:18:00.220Z,100.00
2023-05-22T05:20:27.598Z,100.00
2023-05-22T05:22:57.473Z,100.00
2023-05-22T05:25:24.173Z,100.00
2023-05-22T05:27:51.039Z,100.00
2023-05-22T05:30:20.509Z,100.00
2023-05-22T05:32:47.679Z,100.00
2023-05-22T05:35:14.858Z,100.00
2023-05-22T05:37:43.867Z,100.00
2023-05-22T05:40:11.633Z,100.00
2023-05-22T05:42:38.340Z,100.00
2023-05-22T05:45:11.860Z,100.00
2023-05-22T05:47:38.756Z,100.00
2023-05-22T05:50:07.206Z,100.00
2023-05-22T05:52:34.195Z,100.00
2023-05-22T05:55:00.976Z,100.00
2023-05-22T05:57:31.778Z,100.00
2023-05-22T05:59:58.514Z,100.00
2023-05-22T06:02:25.370Z,100.00
2023-05-22T06:04:59.790Z,100.00
2023-05-22T06:07:28.524Z,100.00
2023-05-22T06:10:02.962Z,100.00
2023-05-22T06:12:29.808Z,100.00
2023-05-22T06:15:08.849Z,98.37
2023-05-22T06:17:37.438Z,94.81
2023-05-22T06:20:07.487Z,93.68
2023-05-22T06:22:34.234Z,91.77
2023-05-22T06:25:01.222Z,88.27
2023-05-22T06:27:31.043Z,80.96
2023-05-22T06:30:01.925Z,82.46
2023-05-22T06:32:28.919Z,79.60
2023-05-22T06:35:01.501Z,77.67
2023-05-22T06:37:28.289Z,76.25
2023-05-22T06:40:01.859Z,74.91
2023-05-22T06:42:28.613Z,69.86
2023-05-22T06:45:17.842Z,69.14
2023-05-22T06:47:44.636Z,68.41
2023-05-22T06:50:14.262Z,69.93
2023-05-22T06:52:44.178Z,70.66
2023-05-22T06:55:11.098Z,69.78
2023-05-22T06:57:37.817Z,68.62
2023-05-22T07:00:11.661Z,65.61
2023-05-22T07:02:39.302Z,66.19
2023-05-22T07:05:09.551Z,65.01
2023-05-22T07:07:39.547Z,67.07
2023-05-22T07:10:07.932Z,65.23
2023-05-22T07:12:34.729Z,63.58
2023-05-22T07:15:01.855Z,60.97
2023-05-22T07:17:28.768Z,63.07
2023-05-22T07:20:08.112Z,63.38
2023-05-22T07:22:34.801Z,63.75
2023-05-22T07:25:10.659Z,63.09
2023-05-22T07:27:37.480Z,60.59
2023-05-22T07:30:08.186Z,62.65
2023-05-22T07:32:34.887Z,63.39
2023-05-22T07:35:10.679Z,60.01
2023-05-22T07:37:38.202Z,59.82
2023-05-22T07:40:09.794Z,61.02
2023-05-22T07:42:36.499Z,62.34
2023-05-22T07:45:04.919Z,60.38
2023-05-22T07:47:31.657Z,62.31
2023-05-22T07:50:06.317Z,61.89
2023-05-22T07:52:33.057Z,57.70
2023-05-22T07:55:02.864Z,58.73
2023-05-22T07:57:32.849Z,55.75
2023-05-22T08:00:17.822Z,52.84
2023-05-22T08:02:45.259Z,50.62
2023-05-22T08:05:12.180Z,51.37
2023-05-22T08:07:39.262Z,51.99
2023-05-22T08:10:21.140Z,52.93
2023-05-22T08:12:47.892Z,52.78
2023-05-22T08:15:14.812Z,51.96
2023-05-22T08:17:41.604Z,52.08
2023-05-22T08:20:09.496Z,51.54
2023-05-22T08:22:39.207Z,50.29
2023-05-22T08:25:09.679Z,50.59
2023-05-22T08:27:38.032Z,53.31
2023-05-22T08:30:09.089Z,50.12
2023-05-22T08:32:36.121Z,51.98
2023-05-22T08:35:09.551Z,49.04
2023-05-22T08:37:38.925Z,46.21
2023-05-22T08:40:15.587Z,47.90
2023-05-22T08:42:45.608Z,44.11
2023-05-22T08:45:16.252Z,44.01
2023-05-22T08:47:46.476Z,42.61
2023-05-22T08:50:15.264Z,40.56
2023-05-22T08:52:57.594Z,43.36
2023-05-22T08:55:25.195Z,43.97
2023-05-22T08:58:02.528Z,42.72
2023-05-22T09:00:37.176Z,45.93
2023-05-22T09:03:10.241Z,46.29
2023-05-22T09:05:37.242Z,47.69
2023-05-22T09:08:19.035Z,47.10
2023-05-22T09:10:46.994Z,47.38
2023-05-22T09:13:26.807Z,49.33
2023-05-22T09:16:12.781Z,50.17
2023-05-22T09:18:42.391Z,50.75
2023-05-22T09:21:25.971Z,48.80
2023-05-22T09:24:06.232Z,47.77
2023-05-22T09:26:33.717Z,46.22
2023-05-22T09:29:11.781Z,44.89
2023-05-22T09:31:44.493Z,46.36
2023-05-22T09:34:15.978Z,44.74
2023-05-22T09:36:43.639Z,43.94
2023-05-22T09:39:10.884Z,42.51
2023-05-22T09:41:43.069Z,43.53
2023-05-22T09:44:15.947Z,41.88
2023-05-22T09:46:46.766Z,42.34
2023-05-22T09:49:19.077Z,44.25
2023-05-22T09:51:58.747Z,43.50
2023-05-22T09:54:28.014Z,42.56
2023-05-22T09:57:08.024Z,41.54
2023-05-22T09:59:40.250Z,40.80
2023-05-22T10:02:11.157Z,43.24
2023-05-22T10:04:43.990Z,39.94
2023-05-22T10:07:12.497Z,39.46
2023-05-22T10:09:51.718Z,41.40
2023-05-22T10:12:24.140Z,41.77
2023-05-22T10:14:57.086Z,44.24
2023-05-22T10:17:26.956Z,42.12
2023-05-22T10:20:03.494Z,40.28
2023-05-22T10:22:35.629Z,39.98
2023-05-22T10:25:12.435Z,39.62
2023-05-22T10:27:41.524Z,39.13
2023-05-22T10:30:21.094Z,40.18
2023-05-22T10:33:26.176Z,37.91
2023-05-22T10:37:16.872Z,40.46
2023-05-22T10:40:46.567Z,39.21
2023-05-22T10:43:13.986Z,42.71
2023-05-22T10:45:46.403Z,45.19
2023-05-22T10:48:13.316Z,44.52
2023-05-22T10:50:51.288Z,46.52
2023-05-22T10:53:34.316Z,45.93
2023-05-22T10:56:16.144Z,45.26
2023-05-22T10:59:08.982Z,48.51
2023-05-22T11:01:40.869Z,47.55
2023-05-22T11:04:12.006Z,47.05
2023-05-22T11:06:41.363Z,48.21
2023-05-22T11:09:43.232Z,48.31
2023-05-22T11:12:28.794Z,46.30
2023-05-22T11:15:32.661Z,45.81
2023-05-22T11:18:06.929Z,45.69
2023-05-22T11:20:42.987Z,45.38
2023-05-22T11:23:14.378Z,46.98
2023-05-22T11:25:41.998Z,48.29
2023-05-22T11:28:13.057Z,46.86
2023-05-22T11:30:41.699Z,46.65
2023-05-22T11:33:12.890Z,49.45
2023-05-22T11:35:45.963Z,49.84
2023-05-22T11:38:14.774Z,51.11
2023-05-22T11:40:44.594Z,52.45
2023-05-22T11:43:11.796Z,53.01
2023-05-22T11:45:40.061Z,52.42
2023-05-22T11:48:12.826Z,53.76
2023-05-22T11:50:47.336Z,54.89
2023-05-22T11:53:14.671Z,56.47
2023-05-22T11:55:43.407Z,56.90
2023-05-22T11:58:12.757Z,55.60
2023-05-22T12:00:42.729Z,54.07
2023-05-22T12:03:13.609Z,53.24
2023-05-22T12:05:40.841Z,53.97
2023-05-22T12:08:10.130Z,53.21
2023-05-22T12:10:49.211Z,49.57
2023-05-22T12:13:26.846Z,48.43
2023-05-22T12:16:01.025Z,46.90
2023-05-22T12:18:39.132Z,47.09
2023-05-22T12:21:11.093Z,49.43
2023-05-22T12:23:52.223Z,48.50
2023-05-22T12:26:19.947Z,48.08
2023-05-22T12:28:46.725Z,50.99
2023-05-22T12:31:23.657Z,50.20
2023-05-22T12:33:59.167Z,52.61
2023-05-22T12:36:37.930Z,49.46
2023-05-22T12:39:22.376Z,48.50
2023-05-22T12:41:56.538Z,49.14
2023-05-22T12:44:23.479Z,50.74
2023-05-22T12:47:02.787Z,51.53
2023-05-22T12:49:29.629Z,49.53
2023-05-22T12:51:59.231Z,50.06
2023-05-22T12:54:26.267Z,50.71
2023-05-22T12:57:11.704Z,49.55
2023-05-22T12:59:38.635Z,50.67
2023-05-22T13:02:12.005Z,50.92
2023-05-22T13:04:38.868Z,50.57
2023-05-22T13:07:12.023Z,50.84
2023-05-22T13:09:42.142Z,50.77
2023-05-22T13:12:12.187Z,50.20
2023-05-22T13:14:42.224Z,50.13
2023-05-22T13:17:12.038Z,50.42
2023-05-22T13:19:39.193Z,51.33
2023-05-22T13:22:12.474Z,52.65
2023-05-22T13:24:39.280Z,51.37
2023-05-22T13:27:12.447Z,52.75
2023-05-22T13:29:39.448Z,51.65
2023-05-22T13:32:09.132Z,52.66
2023-05-22T13:34:36.764Z,51.86
2023-05-22T13:37:13.368Z,51.17
2023-05-22T13:39:40.273Z,51.91
2023-05-22T13:42:17.607Z,50.85
2023-05-22T13:44:50.820Z,51.52
2023-05-22T13:47:19.686Z,51.78
2023-05-22T13:49:47.904Z,51.97
2023-05-22T13:52:15.109Z,51.74
2023-05-22T13:54:45.370Z,50.90
2023-05-22T13:57:12.106Z,51.02
2023-05-22T13:59:41.612Z,51.02
2023-05-22T14:02:14.006Z,49.65
2023-05-22T14:04:41.170Z,48.31
2023-05-22T14:07:11.039Z,49.31
2023-05-22T14:09:40.264Z,49.65
2023-05-22T14:12:15.868Z,50.65
2023-05-22T14:14:45.873Z,51.58
2023-05-22T14:17:12.780Z,52.88
2023-05-22T14:19:45.760Z,54.22
2023-05-22T14:22:12.624Z,56.07
2023-05-22T14:24:39.366Z,54.47
2023-05-22T14:27:12.330Z,53.94
2023-05-22T14:29:41.947Z,52.79
2023-05-22T14:32:11.777Z,53.22
2023-05-22T14:34:38.590Z,53.98
2023-05-22T14:37:10.419Z,50.97
2023-05-22T14:39:45.494Z,49.53
2023-05-22T14:42:12.519Z,48.95
2023-05-22T14:44:42.505Z,46.28
2023-05-22T14:47:21.883Z,46.27
2023-05-22T14:49:48.914Z,46.05
2023-05-22T14:52:25.271Z,45.83
2023-05-22T14:54:53.589Z,47.35
2023-05-22T14:57:20.607Z,48.46
2023-05-22T14:59:47.752Z,49.61
2023-05-22T15:02:14.724Z,49.81
2023-05-22T15:04:41.584Z,48.43
2023-05-22T15:07:14.606Z,48.39
2023-05-22T15:09:41.379Z,49.84
2023-05-22T15:12:25.116Z,50.17
2023-05-22T15:14:51.906Z,49.84
2023-05-22T15:17:23.633Z,50.66
2023-05-22T15:19:50.559Z,51.47
2023-05-22T15:22:19.950Z,52.15
2023-05-22T15:25:24.305Z,51.79
2023-05-22T15:27:51.444Z,53.53
2023-05-22T15:30:23.101Z,53.05
2023-05-22T15:32:50.152Z,52.39
2023-05-22T15:35:17.196Z,53.01
2023-05-22T15:37:50.265Z,51.32
2023-05-22T15:40:23.994Z,52.13
2023-05-22T15:42:55.358Z,52.23
2023-05-22T15:45:25.321Z,53.29
2023-05-22T15:47:55.816Z,53.17
2023-05-22T15:50:22.626Z,54.27
2023-05-22T15:52:49.562Z,53.99
2023-05-22T15:55:16.805Z,54.11
2023-05-22T15:57:43.625Z,54.79
2023-05-22T16:00:14.361Z,55.92
2023-05-22T16:05:38.777Z,56.27
2023-05-22T16:08:17.680Z,57.27
2023-05-22T16:16:13.512Z,59.69
2023-05-22T16:24:14.305Z,61.17
2023-05-22T16:29:22.801Z,62.94
2023-05-22T16:31:50.121Z,62.70
2023-05-22T16:37:17.522Z,64.10
2023-05-22T16:39:50.007Z,62.79
2023-05-22T16:53:26.483Z,64.54
2023-05-22T16:56:15.068Z,64.54
2023-05-22T16:58:44.371Z,64.82
2023-05-22T17:01:23.021Z,65.52
2023-05-22T17:03:55.373Z,65.59
2023-05-22T17:06:25.128Z,66.36
2023-05-22T17:09:00.187Z,66.62
2023-05-22T17:14:08.618Z,67.58
2023-05-22T17:19:27.020Z,68.65
2023-05-22T17:38:08.520Z,72.46
2023-05-22T17:40:45.011Z,73.95
2023-05-22T17:46:07.811Z,75.91
2023-05-22T17:51:18.130Z,77.39
2023-05-22T17:53:48.645Z,77.56
2023-05-22T17:56:25.641Z,79.06
2023-05-22T17:59:00.459Z,78.92
2023-05-22T18:04:12.455Z,79.64
2023-05-22T18:09:20.284Z,80.00
2023-05-22T18:14:27.990Z,81.30
2023-05-22T18:17:04.680Z,79.90
2023-05-22T18:22:18.171Z,80.07
2023-05-22T18:24:45.045Z,80.24
2023-05-22T18:27:17.697Z,80.16
2023-05-22T18:29:45.231Z,79.90
2023-05-22T18:32:18.761Z,79.35
2023-05-22T18:34:52.230Z,78.75
2023-05-22T18:37:30.492Z,79.23
2023-05-22T18:42:42.745Z,77.45
2023-05-22T18:45:15.281Z,77.48
2023-05-22T18:47:42.081Z,77.50
2023-05-22T18:50:09.771Z,78.01
2023-05-22T18:52:39.257Z,76.64
2023-05-22T18:55:19.467Z,80.50
2023-05-22T18:57:46.477Z,83.30
2023-05-22T19:00:14.182Z,83.97
2023-05-22T19:02:44.194Z,87.64
2023-05-22T19:05:21.235Z,88.07
2023-05-22T19:07:48.358Z,89.60
2023-05-22T19:10:22.870Z,91.66
2023-05-22T19:12:51.984Z,93.05
2023-05-22T19:15:23.640Z,95.40
2023-05-22T19:17:50.657Z,95.53
2023-05-22T19:20:21.525Z,97.66
2023-05-22T19:22:48.628Z,100.00
2023-05-22T19:25:19.607Z,100.00
2023-05-22T19:27:48.736Z,100.00
2023-05-22T19:30:20.881Z,100.00
2023-05-22T19:32:49.855Z,100.00
2023-05-22T19:35:20.690Z,100.00
2023-05-22T19:37:47.653Z,100.00
2023-05-22T19:40:23.947Z,100.00
2023-05-22T19:42:50.998Z,100.00
2023-05-22T19:45:20.695Z,100.00
2023-05-22T19:47:47.481Z,100.00
2023-05-22T19:50:14.387Z,100.00
2023-05-22T19:52:41.598Z,100.00
2023-05-22T19:55:10.212Z,100.00
2023-05-22T19:57:37.239Z,100.00
2023-05-22T20:00:10.950Z,100.00
2023-05-22T20:02:40.023Z,100.00
2023-05-22T20:05:09.436Z,100.00
2023-05-22T20:07:36.429Z,100.00
2023-05-22T20:10:07.330Z,100.00
2023-05-22T20:12:38.198Z,100.00
2023-05-22T20:15:10.590Z,100.00
2023-05-22T20:17:38.412Z,100.00
2023-05-22T20:20:09.718Z,100.00
2023-05-22T20:22:36.518Z,100.00
2023-05-22T20:25:07.903Z,100.00
2023-05-22T20:27:34.684Z,100.00
2023-05-22T20:30:01.484Z,100.00
2023-05-22T20:32:28.822Z,100.00
2023-05-22T20:35:01.078Z,100.00
2023-05-22T20:37:27.782Z,100.00
2023-05-22T20:40:09.404Z,100.00
2023-05-22T20:42:37.772Z,100.00
2023-05-22T20:45:13.654Z,100.00
2023-05-22T20:47:41.444Z,100.00
2023-05-22T20:50:09.126Z,100.00
2023-05-22T20:52:37.562Z,100.00
2023-05-22T20:55:08.631Z,100.00
2023-05-22T20:57:35.638Z,100.00
2023-05-22T21:00:13.719Z,100.00
2023-05-22T21:02:57.070Z,100.00
2023-05-22T21:05:27.930Z,100.00
2023-05-22T21:07:58.157Z,100.00
2023-05-22T21:10:27.846Z,100.00
2023-05-22T21:12:57.583Z,100.00
2023-05-22T21:15:24.310Z,100.00
2023-05-22T21:17:51.087Z,100.00
2023-05-22T21:20:17.726Z,100.00
2023-05-22T21:22:44.495Z,100.00
2023-05-22T21:25:11.211Z,100.00
2023-05-22T21:27:37.963Z,100.00
2023-05-22T21:30:10.965Z,100.00
2023-05-22T21:32:37.726Z,100.00
2023-05-22T21:35:09.311Z,100.00
2023-05-22T21:37:36.012Z,100.00
2023-05-22T21:40:05.448Z,100.00
2023-05-22T21:42:45.025Z,100.00
2023-05-22T21:45:18.343Z,100.00
2023-05-22T21:47:45.181Z,100.00
2023-05-22T21:50:12.129Z,100.00
2023-05-22T21:52:38.840Z,100.00
2023-05-22T21:55:11.651Z,100.00
2023-05-22T21:57:38.384Z,100.00
2023-05-22T22:00:09.556Z,100.00
2023-05-22T22:02:37.517Z,100.00
2023-05-22T22:05:08.611Z,100.00
2023-05-22T22:07:35.271Z,100.00
2023-05-22T22:10:12.367Z,100.00
2023-05-22T22:12:39.139Z,100.00
2023-05-22T22:15:12.074Z,100.00
2023-05-22T22:17:40.588Z,100.00
2023-05-22T22:20:11.458Z,100.00
2023-05-22T22:22:42.627Z,100.00
2023-05-22T22:25:09.874Z,100.00
2023-05-22T22:27:36.857Z,100.00
2023-05-22T22:30:14.190Z,100.00
2023-05-22T22:32:41.012Z,100.00
2023-05-22T22:35:08.615Z,100.00
2023-05-22T22:37:35.333Z,100.00
2023-05-22T22:40:05.572Z,100.00
2023-05-22T22:42:35.437Z,100.00
2023-05-22T22:45:15.024Z,100.00
2023-05-22T22:47:41.814Z,100.00
2023-05-22T22:50:17.601Z,100.00
2023-05-22T22:52:45.638Z,100.00
2023-05-22T22:55:13.416Z,100.00
2023-05-22T22:57:44.619Z,100.00
2023-05-22T23:00:16.025Z,100.00
2023-05-22T23:02:43.208Z,100.00
2023-05-22T23:05:14.802Z,100.00
2023-05-22T23:07:41.861Z,100.00
2023-05-22T23:10:09.486Z,100.00
2023-05-22T23:12:36.367Z,100.00
2023-05-22T23:15:06.584Z,100.00
2023-05-22T23:17:36.404Z,100.00
2023-05-22T23:20:03.523Z,100.00
2023-05-22T23:22:30.566Z,100.00
2023-05-22T23:24:57.506Z,100.00
2023-05-22T23:27:27.836Z,100.00
2023-05-22T23:29:58.369Z,100.00
2023-05-22T23:32:27.980Z,100.00
2023-05-22T23:35:18.345Z,100.00
2023-05-22T23:37:45.115Z,100.00
2023-05-22T23:40:12.663Z,100.00
2023-05-22T23:42:39.399Z,100.00
2023-05-22T23:45:14.864Z,100.00
2023-05-22T23:47:41.662Z,100.00
2023-05-22T23:50:13.698Z,100.00
2023-05-22T23:53:09.867Z,100.00
2023-05-22T23:55:36.721Z,100.00
2023-05-22T23:58:06.869Z,100.00
